sensor_id;sensor_type;location;lat;lon;timestamp;P1;durP1;ratioP1;P2;durP2;ratioP2
17382;SDS011;8809;51.892;8.384;2023-07-31T00:01:00;2.50;;;1.65;;
17382;SDS011;8809;51.892;8.384;2023-07-31T00:03:27;1.92;;;1.58;;
17382;SDS011;8809;51.892;8.384;2023-07-31T00:05:54;2.28;;;1.60;;
17382;SDS011;8809;51.892;8.384;2023-07-31T00:08:21;1.92;;;1.23;;
17382;SDS011;8809;51.892;8.384;2023-07-31T00:10:51;1.50;;;1.40;;
17382;SDS011;8809;51.892;8.384;2023-07-31T00:13:19;2.22;;;1.48;;
17382;SDS011;8809;51.892;8.384;2023-07-31T00:15:46;3.88;;;2.00;;
17382;SDS011;8809;51.892;8.384;2023-07-31T00:18:15;2.25;;;1.67;;
17382;SDS011;8809;51.892;8.384;2023-07-31T00:20:42;3.50;;;2.10;;
17382;SDS011;8809;51.892;8.384;2023-07-31T00:23:13;3.58;;;1.80;;
17382;SDS011;8809;51.892;8.384;2023-07-31T00:25:40;1.98;;;1.70;;
17382;SDS011;8809;51.892;8.384;2023-07-31T00:28:07;1.92;;;1.50;;
17382;SDS011;8809;51.892;8.384;2023-07-31T00:30:34;2.70;;;1.80;;
17382;SDS011;8809;51.892;8.384;2023-07-31T00:33:01;2.10;;;1.75;;
17382;SDS011;8809;51.892;8.384;2023-07-31T00:35:30;1.58;;;1.40;;
17382;SDS011;8809;51.892;8.384;2023-07-31T00:37:57;3.33;;;2.13;;
17382;SDS011;8809;51.892;8.384;2023-07-31T00:40:25;2.00;;;1.50;;
17382;SDS011;8809;51.892;8.384;2023-07-31T00:42:53;1.77;;;1.63;;
17382;SDS011;8809;51.892;8.384;2023-07-31T00:45:20;1.83;;;1.65;;
17382;SDS011;8809;51.892;8.384;2023-07-31T00:47:52;3.30;;;1.77;;
17382;SDS011;8809;51.892;8.384;2023-07-31T00:50:19;2.03;;;1.42;;
17382;SDS011;8809;51.892;8.384;2023-07-31T00:52:50;2.92;;;1.50;;
17382;SDS011;8809;51.892;8.384;2023-07-31T00:55:17;1.63;;;1.38;;
17382;SDS011;8809;51.892;8.384;2023-07-31T00:57:45;1.38;;;1.25;;
17382;SDS011;8809;51.892;8.384;2023-07-31T01:00:12;1.58;;;1.35;;
17382;SDS011;8809;51.892;8.384;2023-07-31T01:02:39;3.00;;;1.73;;
17382;SDS011;8809;51.892;8.384;2023-07-31T01:05:07;2.58;;;1.40;;
17382;SDS011;8809;51.892;8.384;2023-07-31T01:07:35;1.85;;;1.35;;
17382;SDS011;8809;51.892;8.384;2023-07-31T01:10:14;4.50;;;1.30;;
17382;SDS011;8809;51.892;8.384;2023-07-31T01:12:45;2.70;;;1.50;;
17382;SDS011;8809;51.892;8.384;2023-07-31T01:15:14;3.10;;;1.60;;
17382;SDS011;8809;51.892;8.384;2023-07-31T01:17:42;2.80;;;1.10;;
17382;SDS011;8809;51.892;8.384;2023-07-31T01:20:10;1.90;;;1.45;;
17382;SDS011;8809;51.892;8.384;2023-07-31T01:22:42;3.22;;;1.50;;
17382;SDS011;8809;51.892;8.384;2023-07-31T01:25:34;2.47;;;1.10;;
17382;SDS011;8809;51.892;8.384;2023-07-31T01:28:14;1.85;;;1.17;;
17382;SDS011;8809;51.892;8.384;2023-07-31T01:30:48;1.50;;;1.20;;
17382;SDS011;8809;51.892;8.384;2023-07-31T01:33:15;1.30;;;1.17;;
17382;SDS011;8809;51.892;8.384;2023-07-31T01:35:44;2.70;;;1.17;;
17382;SDS011;8809;51.892;8.384;2023-07-31T01:38:13;1.95;;;1.30;;
17382;SDS011;8809;51.892;8.384;2023-07-31T01:40:41;1.45;;;1.33;;
17382;SDS011;8809;51.892;8.384;2023-07-31T01:43:10;1.95;;;1.20;;
17382;SDS011;8809;51.892;8.384;2023-07-31T01:45:37;3.53;;;1.30;;
17382;SDS011;8809;51.892;8.384;2023-07-31T01:48:04;2.70;;;1.40;;
17382;SDS011;8809;51.892;8.384;2023-07-31T01:50:31;1.83;;;1.40;;
17382;SDS011;8809;51.892;8.384;2023-07-31T01:52:58;1.58;;;1.00;;
17382;SDS011;8809;51.892;8.384;2023-07-31T01:55:26;1.95;;;1.40;;
17382;SDS011;8809;51.892;8.384;2023-07-31T01:57:53;3.10;;;1.60;;
17382;SDS011;8809;51.892;8.384;2023-07-31T02:00:21;2.25;;;1.30;;
17382;SDS011;8809;51.892;8.384;2023-07-31T02:02:48;2.45;;;1.40;;
17382;SDS011;8809;51.892;8.384;2023-07-31T02:05:15;2.45;;;1.45;;
17382;SDS011;8809;51.892;8.384;2023-07-31T02:07:43;1.50;;;1.25;;
17382;SDS011;8809;51.892;8.384;2023-07-31T02:10:10;1.77;;;1.23;;
17382;SDS011;8809;51.892;8.384;2023-07-31T02:12:37;3.33;;;1.50;;
17382;SDS011;8809;51.892;8.384;2023-07-31T02:15:04;1.52;;;1.20;;
17382;SDS011;8809;51.892;8.384;2023-07-31T02:17:36;2.38;;;1.27;;
17382;SDS011;8809;51.892;8.384;2023-07-31T02:20:03;2.13;;;1.23;;
17382;SDS011;8809;51.892;8.384;2023-07-31T02:22:31;1.98;;;1.60;;
17382;SDS011;8809;51.892;8.384;2023-07-31T02:24:58;1.55;;;1.13;;
17382;SDS011;8809;51.892;8.384;2023-07-31T02:27:26;2.45;;;1.40;;
17382;SDS011;8809;51.892;8.384;2023-07-31T02:29:53;2.35;;;1.25;;
17382;SDS011;8809;51.892;8.384;2023-07-31T02:32:24;1.65;;;1.15;;
17382;SDS011;8809;51.892;8.384;2023-07-31T02:34:53;2.08;;;1.15;;
17382;SDS011;8809;51.892;8.384;2023-07-31T02:37:20;2.20;;;1.35;;
17382;SDS011;8809;51.892;8.384;2023-07-31T02:39:47;1.70;;;1.20;;
17382;SDS011;8809;51.892;8.384;2023-07-31T02:42:14;1.92;;;1.50;;
17382;SDS011;8809;51.892;8.384;2023-07-31T02:44:41;1.98;;;1.60;;
17382;SDS011;8809;51.892;8.384;2023-07-31T02:47:08;2.33;;;1.75;;
17382;SDS011;8809;51.892;8.384;2023-07-31T02:49:36;3.58;;;2.33;;
17382;SDS011;8809;51.892;8.384;2023-07-31T02:52:05;3.92;;;2.50;;
17382;SDS011;8809;51.892;8.384;2023-07-31T02:54:33;3.35;;;2.47;;
17382;SDS011;8809;51.892;8.384;2023-07-31T02:57:00;4.18;;;3.38;;
17382;SDS011;8809;51.892;8.384;2023-07-31T02:59:27;5.28;;;3.47;;
17382;SDS011;8809;51.892;8.384;2023-07-31T03:01:55;5.97;;;4.70;;
17382;SDS011;8809;51.892;8.384;2023-07-31T03:04:22;7.72;;;4.85;;
17382;SDS011;8809;51.892;8.384;2023-07-31T03:06:49;12.75;;;7.03;;
17382;SDS011;8809;51.892;8.384;2023-07-31T03:09:18;13.90;;;8.70;;
17382;SDS011;8809;51.892;8.384;2023-07-31T03:11:48;16.48;;;10.27;;
17382;SDS011;8809;51.892;8.384;2023-07-31T03:14:15;14.02;;;9.00;;
17382;SDS011;8809;51.892;8.384;2023-07-31T03:16:42;17.02;;;10.65;;
17382;SDS011;8809;51.892;8.384;2023-07-31T03:19:12;19.40;;;10.57;;
17382;SDS011;8809;51.892;8.384;2023-07-31T03:21:39;16.40;;;10.15;;
17382;SDS011;8809;51.892;8.384;2023-07-31T03:24:07;17.25;;;10.77;;
17382;SDS011;8809;51.892;8.384;2023-07-31T03:26:37;14.50;;;9.82;;
17382;SDS011;8809;51.892;8.384;2023-07-31T03:29:06;18.02;;;10.70;;
17382;SDS011;8809;51.892;8.384;2023-07-31T03:31:33;17.35;;;10.18;;
17382;SDS011;8809;51.892;8.384;2023-07-31T03:34:00;16.60;;;10.60;;
17382;SDS011;8809;51.892;8.384;2023-07-31T03:36:27;17.73;;;9.68;;
17382;SDS011;8809;51.892;8.384;2023-07-31T03:38:55;13.18;;;9.25;;
17382;SDS011;8809;51.892;8.384;2023-07-31T03:41:22;17.88;;;9.60;;
17382;SDS011;8809;51.892;8.384;2023-07-31T03:43:50;12.95;;;9.45;;
17382;SDS011;8809;51.892;8.384;2023-07-31T03:46:18;18.67;;;9.20;;
17382;SDS011;8809;51.892;8.384;2023-07-31T03:48:45;16.38;;;9.27;;
17382;SDS011;8809;51.892;8.384;2023-07-31T03:51:15;17.05;;;9.43;;
17382;SDS011;8809;51.892;8.384;2023-07-31T03:53:42;18.67;;;9.32;;
17382;SDS011;8809;51.892;8.384;2023-07-31T03:56:10;18.48;;;9.90;;
17382;SDS011;8809;51.892;8.384;2023-07-31T03:58:37;14.30;;;9.38;;
17382;SDS011;8809;51.892;8.384;2023-07-31T04:01:08;14.57;;;8.55;;
17382;SDS011;8809;51.892;8.384;2023-07-31T04:03:36;17.67;;;9.32;;
17382;SDS011;8809;51.892;8.384;2023-07-31T04:06:03;17.80;;;8.75;;
17382;SDS011;8809;51.892;8.384;2023-07-31T04:08:32;16.23;;;8.40;;
17382;SDS011;8809;51.892;8.384;2023-07-31T04:10:59;15.13;;;8.15;;
17382;SDS011;8809;51.892;8.384;2023-07-31T04:13:28;17.95;;;8.07;;
17382;SDS011;8809;51.892;8.384;2023-07-31T04:15:56;18.45;;;8.95;;
17382;SDS011;8809;51.892;8.384;2023-07-31T04:18:25;17.35;;;8.38;;
17382;SDS011;8809;51.892;8.384;2023-07-31T04:20:53;20.48;;;9.07;;
17382;SDS011;8809;51.892;8.384;2023-07-31T04:23:23;16.17;;;8.95;;
17382;SDS011;8809;51.892;8.384;2023-07-31T04:25:55;13.73;;;8.52;;
17382;SDS011;8809;51.892;8.384;2023-07-31T04:28:23;18.05;;;8.63;;
17382;SDS011;8809;51.892;8.384;2023-07-31T04:30:51;14.30;;;8.55;;
17382;SDS011;8809;51.892;8.384;2023-07-31T04:33:18;19.25;;;8.60;;
17382;SDS011;8809;51.892;8.384;2023-07-31T04:35:53;15.32;;;8.82;;
17382;SDS011;8809;51.892;8.384;2023-07-31T04:38:20;16.73;;;7.72;;
17382;SDS011;8809;51.892;8.384;2023-07-31T04:40:48;15.18;;;8.45;;
17382;SDS011;8809;51.892;8.384;2023-07-31T04:43:15;15.48;;;8.57;;
17382;SDS011;8809;51.892;8.384;2023-07-31T04:45:44;13.13;;;7.20;;
17382;SDS011;8809;51.892;8.384;2023-07-31T04:48:13;14.32;;;7.70;;
17382;SDS011;8809;51.892;8.384;2023-07-31T04:50:41;15.38;;;7.53;;
17382;SDS011;8809;51.892;8.384;2023-07-31T04:53:10;15.77;;;7.32;;
17382;SDS011;8809;51.892;8.384;2023-07-31T04:55:38;14.00;;;6.90;;
17382;SDS011;8809;51.892;8.384;2023-07-31T04:58:05;13.55;;;7.50;;
17382;SDS011;8809;51.892;8.384;2023-07-31T05:00:32;13.65;;;7.43;;
17382;SDS011;8809;51.892;8.384;2023-07-31T05:02:59;16.00;;;7.60;;
17382;SDS011;8809;51.892;8.384;2023-07-31T05:05:26;10.82;;;6.97;;
17382;SDS011;8809;51.892;8.384;2023-07-31T05:07:53;11.27;;;6.70;;
17382;SDS011;8809;51.892;8.384;2023-07-31T05:10:22;13.43;;;7.07;;
17382;SDS011;8809;51.892;8.384;2023-07-31T05:12:49;11.45;;;6.35;;
17382;SDS011;8809;51.892;8.384;2023-07-31T05:15:17;10.57;;;6.57;;
17382;SDS011;8809;51.892;8.384;2023-07-31T05:17:45;13.48;;;6.80;;
17382;SDS011;8809;51.892;8.384;2023-07-31T05:20:12;11.70;;;6.22;;
17382;SDS011;8809;51.892;8.384;2023-07-31T05:22:40;12.70;;;6.45;;
17382;SDS011;8809;51.892;8.384;2023-07-31T05:25:07;11.00;;;6.20;;
17382;SDS011;8809;51.892;8.384;2023-07-31T05:27:36;12.48;;;6.38;;
17382;SDS011;8809;51.892;8.384;2023-07-31T05:30:04;14.95;;;6.75;;
17382;SDS011;8809;51.892;8.384;2023-07-31T05:32:32;10.95;;;6.00;;
17382;SDS011;8809;51.892;8.384;2023-07-31T05:35:00;11.93;;;5.40;;
17382;SDS011;8809;51.892;8.384;2023-07-31T05:37:27;9.80;;;5.63;;
17382;SDS011;8809;51.892;8.384;2023-07-31T05:39:54;9.82;;;5.28;;
17382;SDS011;8809;51.892;8.384;2023-07-31T05:42:21;13.38;;;6.18;;
17382;SDS011;8809;51.892;8.384;2023-07-31T05:44:50;15.00;;;5.80;;
17382;SDS011;8809;51.892;8.384;2023-07-31T05:47:17;12.00;;;5.50;;
17382;SDS011;8809;51.892;8.384;2023-07-31T05:49:44;12.13;;;6.10;;
17382;SDS011;8809;51.892;8.384;2023-07-31T05:52:11;12.43;;;5.78;;
17382;SDS011;8809;51.892;8.384;2023-07-31T05:54:39;9.73;;;5.53;;
17382;SDS011;8809;51.892;8.384;2023-07-31T05:57:06;14.48;;;6.22;;
17382;SDS011;8809;51.892;8.384;2023-07-31T05:59:33;17.00;;;6.20;;
17382;SDS011;8809;51.892;8.384;2023-07-31T06:02:02;10.65;;;5.30;;
17382;SDS011;8809;51.892;8.384;2023-07-31T06:04:29;11.77;;;6.05;;
17382;SDS011;8809;51.892;8.384;2023-07-31T06:06:56;13.38;;;5.50;;
17382;SDS011;8809;51.892;8.384;2023-07-31T06:09:23;12.15;;;6.43;;
17382;SDS011;8809;51.892;8.384;2023-07-31T06:11:51;11.60;;;5.88;;
17382;SDS011;8809;51.892;8.384;2023-07-31T06:14:19;9.25;;;5.60;;
17382;SDS011;8809;51.892;8.384;2023-07-31T06:16:46;13.02;;;5.88;;
17382;SDS011;8809;51.892;8.384;2023-07-31T06:19:15;11.73;;;5.15;;
17382;SDS011;8809;51.892;8.384;2023-07-31T06:21:42;11.57;;;5.72;;
17382;SDS011;8809;51.892;8.384;2023-07-31T06:24:10;12.82;;;5.72;;
17382;SDS011;8809;51.892;8.384;2023-07-31T06:26:38;12.88;;;5.72;;
17382;SDS011;8809;51.892;8.384;2023-07-31T06:29:05;11.43;;;5.32;;
17382;SDS011;8809;51.892;8.384;2023-07-31T06:31:33;11.32;;;5.60;;
17382;SDS011;8809;51.892;8.384;2023-07-31T06:34:00;11.25;;;4.97;;
17382;SDS011;8809;51.892;8.384;2023-07-31T06:36:33;10.63;;;5.28;;
17382;SDS011;8809;51.892;8.384;2023-07-31T06:39:13;9.60;;;5.57;;
17382;SDS011;8809;51.892;8.384;2023-07-31T06:41:49;9.88;;;5.32;;
17382;SDS011;8809;51.892;8.384;2023-07-31T06:44:47;9.77;;;4.93;;
17382;SDS011;8809;51.892;8.384;2023-07-31T06:50:43;9.20;;;5.28;;
17382;SDS011;8809;51.892;8.384;2023-07-31T06:53:16;8.38;;;5.20;;
17382;SDS011;8809;51.892;8.384;2023-07-31T06:55:43;9.18;;;5.22;;
17382;SDS011;8809;51.892;8.384;2023-07-31T06:58:10;10.50;;;5.65;;
17382;SDS011;8809;51.892;8.384;2023-07-31T07:00:37;9.45;;;5.13;;
17382;SDS011;8809;51.892;8.384;2023-07-31T07:03:07;6.55;;;5.38;;
17382;SDS011;8809;51.892;8.384;2023-07-31T07:05:42;9.68;;;5.40;;
17382;SDS011;8809;51.892;8.384;2023-07-31T07:08:09;10.25;;;5.55;;
17382;SDS011;8809;51.892;8.384;2023-07-31T07:10:42;13.70;;;5.63;;
17382;SDS011;8809;51.892;8.384;2023-07-31T07:13:11;9.20;;;5.13;;
17382;SDS011;8809;51.892;8.384;2023-07-31T07:15:39;12.82;;;5.25;;
17382;SDS011;8809;51.892;8.384;2023-07-31T07:18:06;11.65;;;5.75;;
17382;SDS011;8809;51.892;8.384;2023-07-31T07:20:36;13.10;;;5.43;;
17382;SDS011;8809;51.892;8.384;2023-07-31T07:23:03;9.43;;;5.47;;
17382;SDS011;8809;51.892;8.384;2023-07-31T07:25:30;9.73;;;5.13;;
17382;SDS011;8809;51.892;8.384;2023-07-31T07:27:59;11.25;;;5.63;;
17382;SDS011;8809;51.892;8.384;2023-07-31T07:30:26;8.98;;;5.65;;
17382;SDS011;8809;51.892;8.384;2023-07-31T07:32:53;9.15;;;5.13;;
17382;SDS011;8809;51.892;8.384;2023-07-31T07:35:21;7.22;;;5.13;;
17382;SDS011;8809;51.892;8.384;2023-07-31T07:37:53;7.88;;;5.13;;
17382;SDS011;8809;51.892;8.384;2023-07-31T07:40:22;9.93;;;5.32;;
17382;SDS011;8809;51.892;8.384;2023-07-31T07:42:49;9.40;;;5.40;;
17382;SDS011;8809;51.892;8.384;2023-07-31T07:45:19;8.23;;;5.45;;
17382;SDS011;8809;51.892;8.384;2023-07-31T07:47:49;7.82;;;4.85;;
17382;SDS011;8809;51.892;8.384;2023-07-31T07:50:16;6.85;;;4.55;;
17382;SDS011;8809;51.892;8.384;2023-07-31T07:52:44;8.55;;;5.00;;
17382;SDS011;8809;51.892;8.384;2023-07-31T07:55:11;7.97;;;5.20;;
17382;SDS011;8809;51.892;8.384;2023-07-31T07:57:39;7.75;;;5.00;;
17382;SDS011;8809;51.892;8.384;2023-07-31T08:00:08;8.15;;;5.00;;
17382;SDS011;8809;51.892;8.384;2023-07-31T08:02:38;7.10;;;4.70;;
17382;SDS011;8809;51.892;8.384;2023-07-31T08:05:07;8.65;;;4.68;;
17382;SDS011;8809;51.892;8.384;2023-07-31T08:07:35;7.28;;;4.63;;
17382;SDS011;8809;51.892;8.384;2023-07-31T08:10:04;6.60;;;4.40;;
17382;SDS011;8809;51.892;8.384;2023-07-31T08:12:31;5.88;;;4.38;;
17382;SDS011;8809;51.892;8.384;2023-07-31T08:14:59;6.85;;;5.10;;
17382;SDS011;8809;51.892;8.384;2023-07-31T08:17:27;6.45;;;4.88;;
17382;SDS011;8809;51.892;8.384;2023-07-31T08:19:56;8.75;;;5.30;;
17382;SDS011;8809;51.892;8.384;2023-07-31T08:22:24;9.60;;;5.55;;
17382;SDS011;8809;51.892;8.384;2023-07-31T08:24:51;7.90;;;5.30;;
17382;SDS011;8809;51.892;8.384;2023-07-31T08:27:18;8.57;;;5.60;;
17382;SDS011;8809;51.892;8.384;2023-07-31T08:29:45;9.02;;;5.93;;
17382;SDS011;8809;51.892;8.384;2023-07-31T08:32:13;12.43;;;6.95;;
17382;SDS011;8809;51.892;8.384;2023-07-31T08:34:40;12.13;;;6.57;;
17382;SDS011;8809;51.892;8.384;2023-07-31T08:37:08;10.30;;;6.60;;
17382;SDS011;8809;51.892;8.384;2023-07-31T08:39:37;10.85;;;6.88;;
17382;SDS011;8809;51.892;8.384;2023-07-31T08:42:07;14.23;;;7.43;;
17382;SDS011;8809;51.892;8.384;2023-07-31T08:44:37;9.48;;;6.93;;
17382;SDS011;8809;51.892;8.384;2023-07-31T08:47:05;11.25;;;7.10;;
17382;SDS011;8809;51.892;8.384;2023-07-31T08:49:33;9.82;;;6.75;;
17382;SDS011;8809;51.892;8.384;2023-07-31T08:52:01;10.73;;;7.13;;
17382;SDS011;8809;51.892;8.384;2023-07-31T08:54:30;11.30;;;6.82;;
17382;SDS011;8809;51.892;8.384;2023-07-31T08:56:58;9.45;;;6.32;;
17382;SDS011;8809;51.892;8.384;2023-07-31T08:59:27;10.05;;;6.40;;
17382;SDS011;8809;51.892;8.384;2023-07-31T09:01:57;11.55;;;6.35;;
17382;SDS011;8809;51.892;8.384;2023-07-31T09:04:33;11.60;;;5.82;;
17382;SDS011;8809;51.892;8.384;2023-07-31T09:07:03;8.48;;;5.72;;
17382;SDS011;8809;51.892;8.384;2023-07-31T09:09:33;6.90;;;5.28;;
17382;SDS011;8809;51.892;8.384;2023-07-31T09:12:01;11.18;;;6.00;;
17382;SDS011;8809;51.892;8.384;2023-07-31T09:14:29;7.78;;;5.85;;
17382;SDS011;8809;51.892;8.384;2023-07-31T09:16:57;7.07;;;4.97;;
17382;SDS011;8809;51.892;8.384;2023-07-31T09:19:26;7.13;;;5.35;;
17382;SDS011;8809;51.892;8.384;2023-07-31T09:21:56;8.98;;;5.55;;
17382;SDS011;8809;51.892;8.384;2023-07-31T09:24:27;8.60;;;5.45;;
17382;SDS011;8809;51.892;8.384;2023-07-31T09:26:58;8.65;;;5.13;;
17382;SDS011;8809;51.892;8.384;2023-07-31T09:29:32;7.30;;;4.57;;
17382;SDS011;8809;51.892;8.384;2023-07-31T09:32:02;7.85;;;5.00;;
17382;SDS011;8809;51.892;8.384;2023-07-31T09:34:36;6.97;;;4.97;;
17382;SDS011;8809;51.892;8.384;2023-07-31T09:37:09;7.45;;;5.10;;
17382;SDS011;8809;51.892;8.384;2023-07-31T09:39:50;8.73;;;4.63;;
17382;SDS011;8809;51.892;8.384;2023-07-31T09:42:26;5.70;;;4.20;;
17382;SDS011;8809;51.892;8.384;2023-07-31T09:44:55;6.30;;;4.38;;
17382;SDS011;8809;51.892;8.384;2023-07-31T09:47:35;6.70;;;4.70;;
17382;SDS011;8809;51.892;8.384;2023-07-31T09:50:04;4.95;;;4.25;;
17382;SDS011;8809;51.892;8.384;2023-07-31T09:52:36;7.63;;;4.65;;
17382;SDS011;8809;51.892;8.384;2023-07-31T09:55:06;6.20;;;4.55;;
17382;SDS011;8809;51.892;8.384;2023-07-31T09:57:35;8.25;;;4.68;;
17382;SDS011;8809;51.892;8.384;2023-07-31T10:00:08;6.50;;;4.28;;
17382;SDS011;8809;51.892;8.384;2023-07-31T10:02:37;6.18;;;4.57;;
17382;SDS011;8809;51.892;8.384;2023-07-31T10:05:05;6.10;;;4.05;;
17382;SDS011;8809;51.892;8.384;2023-07-31T10:07:34;7.32;;;4.00;;
17382;SDS011;8809;51.892;8.384;2023-07-31T10:10:05;7.18;;;4.03;;
17382;SDS011;8809;51.892;8.384;2023-07-31T10:12:36;4.97;;;3.65;;
17382;SDS011;8809;51.892;8.384;2023-07-31T10:15:05;6.30;;;3.78;;
17382;SDS011;8809;51.892;8.384;2023-07-31T10:17:35;5.80;;;3.38;;
17382;SDS011;8809;51.892;8.384;2023-07-31T10:20:03;5.55;;;3.25;;
17382;SDS011;8809;51.892;8.384;2023-07-31T10:22:33;4.05;;;3.30;;
17382;SDS011;8809;51.892;8.384;2023-07-31T10:25:05;5.35;;;3.10;;
17382;SDS011;8809;51.892;8.384;2023-07-31T10:27:40;3.72;;;2.47;;
17382;SDS011;8809;51.892;8.384;2023-07-31T10:30:08;2.60;;;2.40;;
17382;SDS011;8809;51.892;8.384;2023-07-31T10:32:38;2.75;;;2.00;;
17382;SDS011;8809;51.892;8.384;2023-07-31T10:35:08;2.42;;;2.13;;
17382;SDS011;8809;51.892;8.384;2023-07-31T10:37:39;3.95;;;2.20;;
17382;SDS011;8809;51.892;8.384;2023-07-31T10:40:10;3.55;;;2.38;;
17382;SDS011;8809;51.892;8.384;2023-07-31T10:42:45;2.30;;;1.90;;
17382;SDS011;8809;51.892;8.384;2023-07-31T10:45:14;3.33;;;2.10;;
17382;SDS011;8809;51.892;8.384;2023-07-31T10:47:58;3.08;;;2.40;;
17382;SDS011;8809;51.892;8.384;2023-07-31T10:50:27;2.67;;;1.88;;
17382;SDS011;8809;51.892;8.384;2023-07-31T10:52:58;3.97;;;2.05;;
17382;SDS011;8809;51.892;8.384;2023-07-31T10:55:27;3.03;;;2.10;;
17382;SDS011;8809;51.892;8.384;2023-07-31T10:58:04;3.03;;;2.00;;
17382;SDS011;8809;51.892;8.384;2023-07-31T11:00:32;2.80;;;2.10;;
17382;SDS011;8809;51.892;8.384;2023-07-31T11:03:01;2.40;;;2.20;;
17382;SDS011;8809;51.892;8.384;2023-07-31T11:05:49;2.67;;;2.03;;
17382;SDS011;8809;51.892;8.384;2023-07-31T11:08:20;2.88;;;2.00;;
17382;SDS011;8809;51.892;8.384;2023-07-31T11:10:49;3.35;;;1.98;;
17382;SDS011;8809;51.892;8.384;2023-07-31T11:13:40;2.65;;;1.90;;
17382;SDS011;8809;51.892;8.384;2023-07-31T11:16:09;2.83;;;1.85;;
17382;SDS011;8809;51.892;8.384;2023-07-31T11:18:38;3.20;;;2.20;;
17382;SDS011;8809;51.892;8.384;2023-07-31T11:21:07;3.75;;;2.22;;
17382;SDS011;8809;51.892;8.384;2023-07-31T11:23:36;2.83;;;2.10;;
17382;SDS011;8809;51.892;8.384;2023-07-31T11:26:05;4.30;;;2.50;;
17382;SDS011;8809;51.892;8.384;2023-07-31T11:28:34;3.65;;;2.47;;
17382;SDS011;8809;51.892;8.384;2023-07-31T11:31:02;4.82;;;2.40;;
17382;SDS011;8809;51.892;8.384;2023-07-31T11:33:30;4.57;;;2.72;;
17382;SDS011;8809;51.892;8.384;2023-07-31T11:35:57;3.20;;;2.15;;
17382;SDS011;8809;51.892;8.384;2023-07-31T11:38:26;4.47;;;2.75;;
17382;SDS011;8809;51.892;8.384;2023-07-31T11:40:54;3.60;;;2.20;;
17382;SDS011;8809;51.892;8.384;2023-07-31T11:43:25;3.08;;;2.10;;
17382;SDS011;8809;51.892;8.384;2023-07-31T11:45:57;4.68;;;2.50;;
17382;SDS011;8809;51.892;8.384;2023-07-31T11:48:29;3.85;;;1.90;;
17382;SDS011;8809;51.892;8.384;2023-07-31T11:51:01;3.88;;;2.20;;
17382;SDS011;8809;51.892;8.384;2023-07-31T11:53:31;2.72;;;2.00;;
17382;SDS011;8809;51.892;8.384;2023-07-31T11:56:02;3.65;;;2.00;;
17382;SDS011;8809;51.892;8.384;2023-07-31T11:58:30;2.47;;;1.90;;
17382;SDS011;8809;51.892;8.384;2023-07-31T12:01:01;4.05;;;2.20;;
17382;SDS011;8809;51.892;8.384;2023-07-31T12:03:29;2.65;;;1.55;;
17382;SDS011;8809;51.892;8.384;2023-07-31T12:06:02;2.08;;;1.85;;
17382;SDS011;8809;51.892;8.384;2023-07-31T12:08:29;1.70;;;1.55;;
17382;SDS011;8809;51.892;8.384;2023-07-31T12:11:02;3.45;;;1.50;;
17382;SDS011;8809;51.892;8.384;2023-07-31T12:13:32;1.67;;;1.40;;
17382;SDS011;8809;51.892;8.384;2023-07-31T12:16:02;1.70;;;1.50;;
17382;SDS011;8809;51.892;8.384;2023-07-31T12:18:35;2.75;;;1.60;;
17382;SDS011;8809;51.892;8.384;2023-07-31T12:21:05;3.70;;;1.60;;
17382;SDS011;8809;51.892;8.384;2023-07-31T12:23:37;3.88;;;1.70;;
17382;SDS011;8809;51.892;8.384;2023-07-31T12:26:05;1.90;;;1.60;;
17382;SDS011;8809;51.892;8.384;2023-07-31T12:28:34;2.00;;;1.80;;
17382;SDS011;8809;51.892;8.384;2023-07-31T12:31:09;2.40;;;1.67;;
17382;SDS011;8809;51.892;8.384;2023-07-31T12:33:37;2.08;;;1.80;;
17382;SDS011;8809;51.892;8.384;2023-07-31T12:36:07;1.83;;;1.45;;
17382;SDS011;8809;51.892;8.384;2023-07-31T12:38:36;1.83;;;1.60;;
17382;SDS011;8809;51.892;8.384;2023-07-31T12:41:03;2.65;;;1.90;;
17382;SDS011;8809;51.892;8.384;2023-07-31T12:43:32;3.28;;;2.08;;
17382;SDS011;8809;51.892;8.384;2023-07-31T12:45:59;2.85;;;1.88;;
17382;SDS011;8809;51.892;8.384;2023-07-31T12:48:28;2.13;;;1.92;;
17382;SDS011;8809;51.892;8.384;2023-07-31T12:50:56;2.40;;;1.80;;
17382;SDS011;8809;51.892;8.384;2023-07-31T12:53:24;2.42;;;2.22;;
17382;SDS011;8809;51.892;8.384;2023-07-31T12:55:51;4.18;;;2.97;;
17382;SDS011;8809;51.892;8.384;2023-07-31T12:58:18;3.30;;;2.83;;
17382;SDS011;8809;51.892;8.384;2023-07-31T13:00:46;3.10;;;2.80;;
17382;SDS011;8809;51.892;8.384;2023-07-31T13:03:13;4.18;;;3.13;;
17382;SDS011;8809;51.892;8.384;2023-07-31T13:05:43;3.13;;;2.80;;
17382;SDS011;8809;51.892;8.384;2023-07-31T13:08:10;4.78;;;3.08;;
17382;SDS011;8809;51.892;8.384;2023-07-31T13:10:37;3.83;;;2.90;;
17382;SDS011;8809;51.892;8.384;2023-07-31T13:13:05;3.10;;;2.72;;
17382;SDS011;8809;51.892;8.384;2023-07-31T13:15:32;5.60;;;3.17;;
17382;SDS011;8809;51.892;8.384;2023-07-31T13:18:00;5.15;;;3.20;;
17382;SDS011;8809;51.892;8.384;2023-07-31T13:20:27;4.22;;;2.95;;
17382;SDS011;8809;51.892;8.384;2023-07-31T13:22:56;5.07;;;2.85;;
17382;SDS011;8809;51.892;8.384;2023-07-31T13:25:23;4.10;;;3.08;;
17382;SDS011;8809;51.892;8.384;2023-07-31T13:27:51;4.97;;;2.97;;
17382;SDS011;8809;51.892;8.384;2023-07-31T13:30:18;4.05;;;2.88;;
17382;SDS011;8809;51.892;8.384;2023-07-31T13:32:45;4.47;;;3.00;;
17382;SDS011;8809;51.892;8.384;2023-07-31T13:35:12;4.25;;;2.88;;
17382;SDS011;8809;51.892;8.384;2023-07-31T13:37:41;3.55;;;2.58;;
17382;SDS011;8809;51.892;8.384;2023-07-31T13:40:11;3.92;;;2.80;;
17382;SDS011;8809;51.892;8.384;2023-07-31T13:42:38;4.63;;;3.05;;
17382;SDS011;8809;51.892;8.384;2023-07-31T13:45:05;4.18;;;2.60;;
17382;SDS011;8809;51.892;8.384;2023-07-31T13:47:33;4.05;;;2.80;;
17382;SDS011;8809;51.892;8.384;2023-07-31T13:50:03;5.38;;;3.25;;
17382;SDS011;8809;51.892;8.384;2023-07-31T13:52:31;3.42;;;2.63;;
17382;SDS011;8809;51.892;8.384;2023-07-31T13:54:59;3.53;;;2.83;;
17382;SDS011;8809;51.892;8.384;2023-07-31T13:57:27;3.80;;;2.85;;
17382;SDS011;8809;51.892;8.384;2023-07-31T13:59:55;2.90;;;2.60;;
17382;SDS011;8809;51.892;8.384;2023-07-31T14:02:22;3.45;;;3.05;;
17382;SDS011;8809;51.892;8.384;2023-07-31T14:04:49;5.32;;;2.88;;
17382;SDS011;8809;51.892;8.384;2023-07-31T14:07:16;3.05;;;2.67;;
17382;SDS011;8809;51.892;8.384;2023-07-31T14:09:44;3.55;;;2.45;;
17382;SDS011;8809;51.892;8.384;2023-07-31T14:12:11;5.07;;;2.45;;
17382;SDS011;8809;51.892;8.384;2023-07-31T14:14:40;3.50;;;2.60;;
17382;SDS011;8809;51.892;8.384;2023-07-31T14:17:07;2.40;;;2.20;;
17382;SDS011;8809;51.892;8.384;2023-07-31T14:19:35;3.80;;;2.55;;
17382;SDS011;8809;51.892;8.384;2023-07-31T14:22:02;2.60;;;2.40;;
17382;SDS011;8809;51.892;8.384;2023-07-31T14:24:30;3.08;;;2.38;;
17382;SDS011;8809;51.892;8.384;2023-07-31T14:26:57;4.47;;;2.60;;
17382;SDS011;8809;51.892;8.384;2023-07-31T14:29:24;3.20;;;2.72;;
17382;SDS011;8809;51.892;8.384;2023-07-31T14:31:53;2.92;;;2.28;;
17382;SDS011;8809;51.892;8.384;2023-07-31T14:34:21;2.97;;;2.30;;
17382;SDS011;8809;51.892;8.384;2023-07-31T14:36:48;2.58;;;2.08;;
17382;SDS011;8809;51.892;8.384;2023-07-31T14:39:15;3.33;;;2.30;;
17382;SDS011;8809;51.892;8.384;2023-07-31T14:41:44;4.32;;;2.33;;
17382;SDS011;8809;51.892;8.384;2023-07-31T14:44:11;2.25;;;2.05;;
17382;SDS011;8809;51.892;8.384;2023-07-31T14:46:38;3.88;;;2.20;;
17382;SDS011;8809;51.892;8.384;2023-07-31T14:49:07;2.42;;;2.15;;
17382;SDS011;8809;51.892;8.384;2023-07-31T14:51:34;4.45;;;1.83;;
17382;SDS011;8809;51.892;8.384;2023-07-31T14:54:02;2.22;;;1.80;;
17382;SDS011;8809;51.892;8.384;2023-07-31T14:56:29;2.97;;;2.10;;
17382;SDS011;8809;51.892;8.384;2023-07-31T14:58:56;2.15;;;1.95;;
17382;SDS011;8809;51.892;8.384;2023-07-31T15:01:24;3.13;;;2.03;;
17382;SDS011;8809;51.892;8.384;2023-07-31T15:03:51;3.65;;;2.00;;
17382;SDS011;8809;51.892;8.384;2023-07-31T15:06:20;1.98;;;1.73;;
17382;SDS011;8809;51.892;8.384;2023-07-31T15:08:48;2.90;;;1.63;;
17382;SDS011;8809;51.892;8.384;2023-07-31T15:11:15;2.78;;;1.85;;